createdAt,value
2022-09-02T00:01:41.101Z,99119.13
2022-09-02T00:04:13.934Z,99108.16
2022-09-02T00:06:44.042Z,99117.03
2022-09-02T00:09:14.693Z,99114.03
2022-09-02T00:11:44.344Z,99113.69
2022-09-02T00:14:16.910Z,99113.06
2022-09-02T00:16:51.953Z,99113.69
2022-09-02T00:19:24.245Z,99109.84
2022-09-02T00:21:53.074Z,99106.84
2022-09-02T00:24:22.085Z,99098.88
2022-09-02T00:26:50.820Z,99108.28
2022-09-02T00:29:24.903Z,99105.09
2022-09-02T00:31:53.206Z,99107.19
2022-09-02T00:34:22.901Z,99104.34
2022-09-02T00:36:51.082Z,99110.25
2022-09-02T00:39:19.262Z,99109.16
2022-09-02T00:41:47.540Z,99114.88
2022-09-02T00:44:18.660Z,99106.72
2022-09-02T00:46:47.554Z,99104.84
2022-09-02T00:49:19.627Z,99102.41
2022-09-02T00:51:55.929Z,99099.97
2022-09-02T00:54:27.190Z,99095.31
2022-09-02T00:56:56.568Z,99096.22
2022-09-02T00:59:31.722Z,99100.38
2022-09-02T01:02:00.247Z,99105.88
2022-09-02T01:04:29.395Z,99098.97
2022-09-02T01:06:59.039Z,99100.50
2022-09-02T01:09:27.383Z,99103.75
2022-09-02T01:11:55.550Z,99103.38
2022-09-02T01:14:24.235Z,99102.13
2022-09-02T01:17:01.170Z,99095.06
2022-09-02T01:19:35.037Z,99100.19
2022-09-02T01:22:16.206Z,99102.47
2022-09-02T01:24:44.721Z,99096.50
2022-09-02T01:27:16.844Z,99099.56
2022-09-02T01:29:45.571Z,99093.06
2022-09-02T01:32:13.836Z,99094.94
2022-09-02T01:34:43.307Z,99095.47
2022-09-02T01:37:12.896Z,99084.56
2022-09-02T01:39:41.298Z,99085.78
2022-09-02T01:42:09.689Z,99093.38
2022-09-02T01:44:44.079Z,99097.25
2022-09-02T01:47:12.298Z,99093.72
2022-09-02T01:49:40.624Z,99092.41
2022-09-02T01:52:09.859Z,99095.94
2022-09-02T01:54:40.337Z,99089.06
2022-09-02T01:57:09.069Z,99095.47
2022-09-02T01:59:37.180Z,99089.75
2022-09-02T02:02:05.886Z,99093.94
2022-09-02T02:04:35.161Z,99098.31
2022-09-02T02:07:04.749Z,99091.78
2022-09-02T02:09:32.932Z,99099.88
2022-09-02T02:12:02.587Z,99093.03
2022-09-02T02:14:31.893Z,99103.47
2022-09-02T02:17:00.081Z,99097.44
2022-09-02T02:19:28.760Z,99094.56
2022-09-02T02:21:57.372Z,99101.63
2022-09-02T02:24:26.243Z,99097.75
2022-09-02T02:26:54.492Z,99097.19
2022-09-02T02:29:24.028Z,99096.84
2022-09-02T02:31:52.466Z,99085.47
2022-09-02T02:34:20.685Z,99091.16
2022-09-02T02:36:48.814Z,99084.50
2022-09-02T02:39:17.325Z,99085.38
2022-09-02T02:41:46.713Z,99085.03
2022-09-02T02:44:15.215Z,99091.91
2022-09-02T02:46:45.544Z,99091.06
2022-09-02T02:49:13.939Z,99084.00
2022-09-02T02:51:42.065Z,99071.88
2022-09-02T02:54:11.294Z,99072.06
2022-09-02T02:56:39.717Z,99077.16
2022-09-02T02:59:08.043Z,99082.25
2022-09-02T03:01:36.374Z,99081.13
2022-09-02T03:04:06.493Z,99070.72
2022-09-02T03:06:35.847Z,99077.00
2022-09-02T03:09:04.180Z,99081.00
2022-09-02T03:11:32.299Z,99083.22
2022-09-02T03:14:00.651Z,99083.31
2022-09-02T03:16:28.950Z,99086.00
2022-09-02T03:18:57.298Z,99075.03
2022-09-02T03:21:26.869Z,99078.03
2022-09-02T03:23:56.059Z,99083.31
2022-09-02T03:26:27.240Z,99079.94
2022-09-02T03:28:56.983Z,99077.94
2022-09-02T03:31:27.367Z,99076.50
2022-09-02T03:33:56.254Z,99080.34
2022-09-02T03:36:28.263Z,99071.72
2022-09-02T03:38:57.282Z,99084.09
2022-09-02T03:41:25.884Z,99078.69
2022-09-02T03:43:54.209Z,99077.00
2022-09-02T03:46:22.439Z,99077.41
2022-09-02T03:48:51.928Z,99084.56
2022-09-02T03:51:20.377Z,99079.69
2022-09-02T03:53:50.239Z,99085.00
2022-09-02T03:56:18.795Z,99089.22
2022-09-02T03:58:50.163Z,99091.56
2022-09-02T04:01:22.528Z,99092.44
2022-09-02T04:03:51.590Z,99099.59
2022-09-02T04:06:22.107Z,99096.47
2022-09-02T04:08:52.329Z,99105.66
2022-09-02T04:11:23.734Z,99114.66
2022-09-02T04:13:54.221Z,99109.31
2022-09-02T04:16:29.035Z,99107.84
2022-09-02T04:18:58.339Z,99106.81
2022-09-02T04:21:27.158Z,99108.00
2022-09-02T04:23:58.246Z,99110.50
2022-09-02T04:26:26.505Z,99109.81
2022-09-02T04:28:54.995Z,99115.28
2022-09-02T04:31:26.231Z,99117.91
2022-09-02T04:33:54.480Z,99117.31
2022-09-02T04:36:24.233Z,99127.88
2022-09-02T04:38:53.091Z,99119.44
2022-09-02T04:41:25.432Z,99126.53
2022-09-02T04:43:56.595Z,99135.13
2022-09-02T04:46:34.557Z,99137.50
2022-09-02T04:49:03.559Z,99134.03
2022-09-02T04:51:32.763Z,99134.47
2022-09-02T04:54:02.097Z,99130.94
2022-09-02T04:56:32.934Z,99128.78
2022-09-02T04:59:01.950Z,99137.28
2022-09-02T05:01:33.216Z,99142.38
2022-09-02T05:04:03.378Z,99133.81
2022-09-02T05:06:32.227Z,99139.97
2022-09-02T05:09:02.414Z,99142.22
2022-09-02T05:11:34.311Z,99137.59
2022-09-02T05:14:06.684Z,99137.06
2022-09-02T05:16:38.078Z,99137.63
2022-09-02T05:19:09.739Z,99130.88
2022-09-02T05:21:41.270Z,99134.19
2022-09-02T05:24:09.472Z,99135.25
2022-09-02T05:26:44.699Z,99137.34
2022-09-02T05:29:13.787Z,99130.56
2022-09-02T05:31:43.627Z,99134.41
2022-09-02T05:34:12.013Z,99135.22
2022-09-02T05:36:40.155Z,99137.94
2022-09-02T05:39:09.572Z,99143.00
2022-09-02T05:41:40.374Z,99140.13
2022-09-02T05:44:09.001Z,99140.13
2022-09-02T05:46:38.125Z,99134.16
2022-09-02T05:49:18.376Z,99132.94
2022-09-02T05:51:49.095Z,99129.97
2022-09-02T05:54:21.524Z,99132.16
2022-09-02T05:56:53.875Z,99137.34
2022-09-02T05:59:22.521Z,99130.41
2022-09-02T06:01:51.800Z,99131.75
2022-09-02T06:04:21.932Z,99136.41
2022-09-02T06:06:50.613Z,99133.47
2022-09-02T06:09:21.017Z,99134.16
2022-09-02T06:11:51.517Z,99136.81
2022-09-02T06:14:23.414Z,99139.00
2022-09-02T06:16:53.840Z,99141.69
2022-09-02T06:19:22.352Z,99139.59
2022-09-02T06:21:50.710Z,99138.59
2022-09-02T06:24:19.237Z,99141.25
2022-09-02T06:26:47.290Z,99140.22
2022-09-02T06:29:17.480Z,99141.31
2022-09-02T06:31:47.408Z,99141.84
2022-09-02T06:34:16.774Z,99141.59
2022-09-02T06:36:48.932Z,99146.66
2022-09-02T06:39:20.066Z,99144.47
2022-09-02T06:41:49.657Z,99143.47
2022-09-02T06:44:21.666Z,99142.78
2022-09-02T06:46:55.182Z,99140.53
2022-09-02T06:49:25.088Z,99138.06
2022-09-02T06:51:56.710Z,99142.06
2022-09-02T06:54:25.588Z,99147.59
2022-09-02T06:56:54.048Z,99139.16
2022-09-02T06:59:23.982Z,99143.06
2022-09-02T07:01:52.650Z,99151.47
2022-09-02T07:04:38.492Z,99155.22
2022-09-02T07:07:08.614Z,99155.88
2022-09-02T07:09:37.092Z,99158.41
2022-09-02T07:12:06.371Z,99164.31
2022-09-02T07:14:39.798Z,99165.94
2022-09-02T07:17:08.677Z,99156.78
2022-09-02T07:19:37.202Z,99164.84
2022-09-02T07:22:07.473Z,99170.56
2022-09-02T07:24:36.290Z,99170.03
2022-09-02T07:27:05.957Z,99172.91
2022-09-02T07:29:35.437Z,99174.13
2022-09-02T07:32:06.100Z,99171.97
2022-09-02T07:34:34.245Z,99167.03
2022-09-02T07:37:06.204Z,99180.66
2022-09-02T07:39:36.934Z,99183.22
2022-09-02T07:42:05.849Z,99173.59
2022-09-02T07:44:36.694Z,99175.22
2022-09-02T07:47:07.823Z,99171.09
2022-09-02T07:52:25.296Z,99166.47
2022-09-02T07:54:53.688Z,99163.59
2022-09-02T07:57:21.810Z,99170.06
2022-09-02T07:59:49.963Z,99174.88
2022-09-02T08:02:19.795Z,99175.94
2022-09-02T08:04:48.490Z,99177.50
2022-09-02T08:07:19.107Z,99185.41
2022-09-02T08:09:47.263Z,99181.22
2022-09-02T08:12:17.812Z,99181.22
2022-09-02T08:14:49.001Z,99180.13
2022-09-02T08:17:17.865Z,99171.22
2022-09-02T08:19:47.632Z,99170.34
2022-09-02T08:22:16.440Z,99165.88
2022-09-02T08:24:44.712Z,99167.41
2022-09-02T08:27:13.082Z,99166.19
2022-09-02T08:29:41.372Z,99166.03
2022-09-02T08:32:09.691Z,99169.72
2022-09-02T08:34:37.982Z,99155.56
2022-09-02T08:37:07.651Z,99157.09
2022-09-02T08:39:36.609Z,99159.72
2022-09-02T08:42:13.608Z,99155.84
2022-09-02T08:44:42.299Z,99152.78
2022-09-02T08:47:16.698Z,99146.47
2022-09-02T08:49:47.731Z,99149.66
2022-09-02T08:52:29.990Z,99141.50
2022-09-02T08:54:58.873Z,99146.28
2022-09-02T08:57:28.429Z,99144.91
2022-09-02T09:00:01.088Z,99156.75
2022-09-02T09:02:47.286Z,99161.78
2022-09-02T09:05:24.988Z,99160.63
2022-09-02T09:08:13.973Z,99164.22
2022-09-02T09:10:57.211Z,99151.72
2022-09-02T09:13:47.700Z,99148.41
2022-09-02T09:16:26.358Z,99148.94
2022-09-02T09:19:08.209Z,99150.88
2022-09-02T09:21:37.201Z,99150.34
2022-09-02T09:24:10.365Z,99166.34
2022-09-02T09:26:42.311Z,99174.34
2022-09-02T09:29:10.838Z,99176.22
2022-09-02T09:31:39.934Z,99175.00
2022-09-02T09:34:10.952Z,99167.28
2022-09-02T09:36:59.809Z,99156.88
2022-09-02T09:39:32.039Z,99157.66
2022-09-02T09:42:01.964Z,99158.34
2022-09-02T09:44:44.933Z,99150.13
2022-09-02T09:47:19.571Z,99146.66
2022-09-02T09:49:49.908Z,99146.47
2022-09-02T09:52:27.484Z,99147.84
2022-09-02T09:55:24.893Z,99140.97
2022-09-02T09:57:55.072Z,99142.59
2022-09-02T10:00:32.164Z,99143.78
2022-09-02T10:03:02.412Z,99137.59
2022-09-02T10:05:34.904Z,99135.53
2022-09-02T10:08:13.139Z,99134.41
2022-09-02T10:10:58.389Z,99129.72
2022-09-02T10:13:31.237Z,99134.88
2022-09-02T10:16:35.698Z,99145.69
2022-09-02T10:19:14.094Z,99177.06
2022-09-02T10:22:02.421Z,99187.28
2022-09-02T10:24:46.404Z,99189.81
2022-09-02T10:27:18.603Z,99185.50
2022-09-02T10:29:59.130Z,99175.75
2022-09-02T10:32:40.506Z,99173.09
2022-09-02T10:35:19.631Z,99176.38
2022-09-02T10:38:07.899Z,99169.56
2022-09-02T10:40:43.013Z,99162.72
2022-09-02T10:43:27.634Z,99155.56
2022-09-02T10:46:01.364Z,99168.47
2022-09-02T10:48:42.976Z,99161.00
2022-09-02T10:51:20.616Z,99171.50
2022-09-02T10:54:01.936Z,99179.28
2022-09-02T10:56:36.914Z,99181.22
2022-09-02T10:59:11.528Z,99179.81
2022-09-02T11:01:46.664Z,99170.25
2022-09-02T11:04:24.252Z,99158.63
2022-09-02T11:07:03.703Z,99157.19
2022-09-02T11:09:38.386Z,99151.91
2022-09-02T11:12:12.773Z,99164.50
2022-09-02T11:14:54.816Z,99173.56
2022-09-02T11:17:30.769Z,99188.25
2022-09-02T11:20:09.610Z,99186.03
2022-09-02T11:22:46.501Z,99197.28
2022-09-02T11:25:18.898Z,99197.25
2022-09-02T11:27:54.666Z,99193.78
2022-09-02T11:30:28.524Z,99187.28
2022-09-02T11:33:01.241Z,99172.69
2022-09-02T11:35:38.938Z,99158.81
2022-09-02T11:38:20.276Z,99159.59
2022-09-02T11:44:05.555Z,99167.53
2022-09-02T11:46:49.998Z,99179.47
2022-09-02T11:49:34.789Z,99175.94
2022-09-02T11:52:24.096Z,99173.56
2022-09-02T11:55:03.414Z,99176.63
2022-09-02T11:57:34.050Z,99174.38
2022-09-02T12:00:29.875Z,99171.06
2022-09-02T12:03:38.855Z,99171.53
2022-09-02T12:06:11.793Z,99176.56
2022-09-02T12:09:07.708Z,99187.84
2022-09-02T12:11:45.541Z,99189.78
2022-09-02T12:15:07.413Z,99176.31
2022-09-02T12:18:17.520Z,99173.84
2022-09-02T12:21:16.470Z,99161.19
2022-09-02T12:24:27.346Z,99155.31
2022-09-02T12:27:11.647Z,99149.84
2022-09-02T12:29:39.922Z,99153.91
2022-09-02T12:32:10.592Z,99156.81
2022-09-02T12:34:55.004Z,99163.31
2022-09-02T12:37:57.004Z,99164.69
2022-09-02T12:40:32.298Z,99150.28
2022-09-02T12:43:04.798Z,99160.19
2022-09-02T12:45:34.804Z,99149.53
2022-09-02T12:48:11.286Z,99154.88
2022-09-02T12:50:55.520Z,99166.84
2022-09-02T12:53:36.457Z,99167.09
2022-09-02T12:56:17.809Z,99162.19
2022-09-02T12:58:48.686Z,99167.84
2022-09-02T13:01:21.080Z,99163.69
2022-09-02T13:04:14.424Z,99146.91
2022-09-02T13:07:02.171Z,99145.13
2022-09-02T13:10:12.940Z,99125.69
2022-09-02T13:13:03.556Z,99111.03
2022-09-02T13:15:40.999Z,99116.41
2022-09-02T13:18:35.505Z,99107.19
2022-09-02T13:21:51.253Z,99102.56
2022-09-02T13:24:50.564Z,99101.94
2022-09-02T13:27:59.418Z,99097.59
2022-09-02T13:30:41.579Z,99098.88
2022-09-02T13:33:11.645Z,99085.88
2022-09-02T13:35:41.797Z,99089.41
2022-09-02T13:38:13.668Z,99079.75
2022-09-02T13:40:46.290Z,99091.31
2022-09-02T13:43:21.207Z,99098.66
2022-09-02T13:45:51.091Z,99118.81
2022-09-02T13:48:22.335Z,99125.84
2022-09-02T13:50:53.639Z,99112.34
2022-09-02T13:53:45.484Z,99126.28
2022-09-02T13:56:17.669Z,99113.94
2022-09-02T13:58:52.747Z,99115.56
2022-09-02T14:01:31.331Z,99116.47
2022-09-02T14:04:01.783Z,99115.66
2022-09-02T14:06:33.485Z,99110.41
2022-09-02T14:09:04.517Z,99107.97
2022-09-02T14:11:43.285Z,99100.81
2022-09-02T14:14:18.731Z,99094.53
2022-09-02T14:16:46.958Z,99095.91
2022-09-02T14:19:26.345Z,99105.19
2022-09-02T14:21:57.503Z,99102.53
2022-09-02T14:24:27.919Z,99103.50
2022-09-02T14:26:57.412Z,99104.78
2022-09-02T14:29:30.115Z,99123.06
2022-09-02T14:32:10.161Z,99117.78
2022-09-02T14:34:40.011Z,99124.84
2022-09-02T14:37:21.998Z,99118.44
2022-09-02T14:39:54.491Z,99105.09
2022-09-02T14:42:22.795Z,99115.00
2022-09-02T14:44:52.554Z,99116.22
2022-09-02T14:47:24.435Z,99105.22
2022-09-02T14:49:55.666Z,99095.66
2022-09-02T14:52:27.779Z,99102.59
2022-09-02T14:54:58.872Z,99101.97
2022-09-02T14:57:32.919Z,99112.69
2022-09-02T15:00:07.940Z,99121.66
2022-09-02T15:02:38.676Z,99126.00
2022-09-02T15:05:08.900Z,99124.03
2022-09-02T15:07:37.165Z,99138.75
2022-09-02T15:10:08.276Z,99140.97
2022-09-02T15:12:41.247Z,99144.06
2022-09-02T15:15:11.083Z,99144.50
2022-09-02T15:17:39.604Z,99148.78
2022-09-02T15:20:11.169Z,99145.47
2022-09-02T15:22:39.633Z,99149.56
2022-09-02T15:25:10.075Z,99153.78
2022-09-02T15:27:38.252Z,99146.03
2022-09-02T15:30:09.555Z,99159.31
2022-09-02T15:32:39.410Z,99158.97
2022-09-02T15:35:10.928Z,99156.13
2022-09-02T15:37:39.076Z,99156.66
2022-09-02T15:40:09.262Z,99150.69
2022-09-02T15:42:37.993Z,99151.03
2022-09-02T15:45:09.053Z,99145.28
2022-09-02T15:47:39.440Z,99136.88
2022-09-02T15:50:08.263Z,99129.72
2022-09-02T15:52:37.427Z,99121.28
2022-09-02T15:55:06.203Z,99124.44
2022-09-02T15:57:34.369Z,99122.94
2022-09-02T16:00:02.495Z,99119.66
2022-09-02T16:02:35.136Z,99113.47
2022-09-02T16:05:04.967Z,99109.59
2022-09-02T16:07:33.454Z,99105.50
2022-09-02T16:10:03.748Z,99112.28
2022-09-02T16:12:31.960Z,99111.28
2022-09-02T16:15:00.521Z,99114.00
2022-09-02T16:17:29.127Z,99118.69
2022-09-02T16:19:57.267Z,99120.09
2022-09-02T16:22:26.737Z,99121.31
2022-09-02T16:24:54.822Z,99126.03
2022-09-02T16:27:42.922Z,99124.94
2022-09-02T16:30:11.803Z,99128.88
2022-09-02T16:32:40.617Z,99127.75
2022-09-02T16:35:10.079Z,99124.59
2022-09-02T16:37:39.800Z,99122.78
2022-09-02T16:40:08.964Z,99128.47
2022-09-02T16:42:38.368Z,99123.06
2022-09-02T16:45:07.429Z,99117.78
2022-09-02T16:47:35.585Z,99116.81
2022-09-02T16:50:03.868Z,99125.94
2022-09-02T16:52:34.988Z,99128.47
2022-09-02T16:55:04.493Z,99118.97
2022-09-02T16:57:32.521Z,99117.78
2022-09-02T17:00:01.313Z,99133.63
2022-09-02T17:02:30.233Z,99135.38
2022-09-02T17:04:58.375Z,99135.03
2022-09-02T17:07:26.618Z,99136.41
2022-09-02T17:09:54.675Z,99136.69
2022-09-02T17:12:24.249Z,99134.47
2022-09-02T17:14:52.607Z,99137.28
2022-09-02T17:17:20.664Z,99138.34
2022-09-02T17:19:48.777Z,99150.75
2022-09-02T17:22:16.938Z,99149.41
2022-09-02T17:24:45.142Z,99163.31
2022-09-02T17:27:13.328Z,99169.22
2022-09-02T17:29:50.532Z,99174.13
2022-09-02T17:32:19.200Z,99180.78
2022-09-02T17:34:47.431Z,99186.72
2022-09-02T17:37:15.488Z,99196.19
2022-09-02T17:39:43.768Z,99209.66
2022-09-02T17:42:12.272Z,99214.31
2022-09-02T17:44:40.632Z,99215.84
2022-09-02T17:47:12.453Z,99220.50
2022-09-02T17:49:44.947Z,99229.13
2022-09-02T17:52:14.737Z,99233.09
2022-09-02T17:54:43.429Z,99236.25
2022-09-02T17:57:25.083Z,99241.09
2022-09-02T18:00:10.615Z,99245.75
2022-09-02T18:03:26.090Z,99255.03
2022-09-02T18:06:10.333Z,99252.63
2022-09-02T18:08:49.930Z,99259.53
2022-09-02T18:11:18.316Z,99274.44
2022-09-02T18:14:00.035Z,99260.47
2022-09-02T18:16:36.617Z,99267.59
2022-09-02T18:19:16.441Z,99268.47
2022-09-02T18:21:54.382Z,99261.84
2022-09-02T18:24:33.761Z,99265.66
2022-09-02T18:27:17.061Z,99262.03
2022-09-02T18:30:03.264Z,99263.22
2022-09-02T18:32:45.845Z,99255.72
2022-09-02T18:35:26.546Z,99255.09
2022-09-02T18:38:06.884Z,99261.47
2022-09-02T18:40:44.575Z,99255.59
2022-09-02T18:43:21.073Z,99244.94
2022-09-02T18:45:50.866Z,99254.34
2022-09-02T18:48:23.116Z,99250.97
2022-09-02T18:50:56.082Z,99249.91
2022-09-02T18:53:30.037Z,99252.31
2022-09-02T18:56:03.889Z,99244.69
2022-09-02T18:58:39.730Z,99232.88
2022-09-02T19:01:15.664Z,99235.28
2022-09-02T19:03:43.758Z,99233.44
2022-09-02T19:06:19.839Z,99234.16
2022-09-02T19:08:55.419Z,99229.94
2022-09-02T19:11:25.803Z,99218.41
2022-09-02T19:13:56.707Z,99219.78
2022-09-02T19:16:27.842Z,99219.09
2022-09-02T19:18:56.406Z,99222.00
2022-09-02T19:21:32.626Z,99214.75
2022-09-02T19:24:05.995Z,99217.00
2022-09-02T19:26:35.015Z,99222.69
2022-09-02T19:29:04.289Z,99218.78
2022-09-02T19:31:32.434Z,99223.56
2022-09-02T19:34:03.980Z,99224.16
2022-09-02T19:36:34.103Z,99216.81
2022-09-02T19:39:04.226Z,99225.63
2022-09-02T19:41:32.377Z,99224.25
2022-09-02T19:44:00.524Z,99227.00
2022-09-02T19:47:11.778Z,99225.63
2022-09-02T19:49:17.137Z,99227.19
2022-09-02T19:51:45.415Z,99233.91
2022-09-02T19:54:17.988Z,99233.63
2022-09-02T19:56:46.575Z,99239.63
2022-09-02T19:59:15.895Z,99235.25
2022-09-02T20:01:44.092Z,99234.41
2022-09-02T20:04:12.557Z,99235.97
2022-09-02T20:06:40.780Z,99224.00
2022-09-02T20:09:09.663Z,99223.78
2022-09-02T20:11:41.174Z,99214.84
2022-09-02T20:14:09.534Z,99217.25
2022-09-02T20:16:37.665Z,99211.19
2022-09-02T20:19:05.735Z,99208.50
2022-09-02T20:21:43.463Z,99217.34
2022-09-02T20:24:15.373Z,99210.34
2022-09-02T20:26:56.774Z,99206.94
2022-09-02T20:29:37.975Z,99206.31
2022-09-02T20:32:15.059Z,99203.22
2022-09-02T20:34:55.410Z,99213.00
2022-09-02T20:37:36.268Z,99208.19
2022-09-02T20:40:22.025Z,99210.34
2022-09-02T20:43:18.153Z,99215.47
2022-09-02T20:45:53.810Z,99211.41
2022-09-02T20:48:39.633Z,99212.81
2022-09-02T20:51:13.628Z,99219.22
2022-09-02T20:54:07.630Z,99214.50
2022-09-02T20:56:45.060Z,99211.41
2022-09-02T20:59:23.981Z,99211.53
2022-09-02T21:01:56.893Z,99210.75
2022-09-02T21:04:33.590Z,99220.63
2022-09-02T21:07:06.062Z,99220.34
2022-09-02T21:09:42.387Z,99221.19
2022-09-02T21:12:22.076Z,99216.53
2022-09-02T21:15:00.290Z,99229.09
2022-09-02T21:17:37.470Z,99225.13
2022-09-02T21:20:15.616Z,99229.50
2022-09-02T21:22:48.286Z,99241.72
2022-09-02T21:25:25.030Z,99251.22
2022-09-02T21:27:58.042Z,99243.47
2022-09-02T21:30:32.989Z,99239.44
2022-09-02T21:33:02.332Z,99242.50
2022-09-02T21:35:36.620Z,99242.75
2022-09-02T21:38:08.478Z,99242.16
2022-09-02T21:40:58.167Z,99249.69
2022-09-02T21:43:42.450Z,99246.44
2022-09-02T21:46:26.057Z,99242.16
2022-09-02T21:49:03.129Z,99240.25
2022-09-02T21:51:36.145Z,99241.44
2022-09-02T21:54:31.854Z,99232.06
2022-09-02T21:57:19.134Z,99234.28
2022-09-02T22:00:06.327Z,99237.38
2022-09-02T22:02:46.468Z,99244.13
2022-09-02T22:05:29.150Z,99244.53
2022-09-02T22:08:04.248Z,99248.09
2022-09-02T22:10:39.250Z,99251.59
2022-09-02T22:13:08.371Z,99245.84
2022-09-02T22:15:58.213Z,99251.03
2022-09-02T22:18:39.541Z,99256.91
2022-09-02T22:21:17.209Z,99250.94
2022-09-02T22:23:45.359Z,99254.06
2022-09-02T22:26:30.766Z,99260.78
2022-09-02T22:29:03.890Z,99257.50
2022-09-02T22:31:36.202Z,99250.88
2022-09-02T22:34:08.835Z,99249.41
2022-09-02T22:36:49.036Z,99250.53
2022-09-02T22:39:17.725Z,99252.47
2022-09-02T22:41:54.374Z,99251.59
2022-09-02T22:45:07.828Z,99247.28
2022-09-02T22:47:56.684Z,99244.00
2022-09-02T22:50:49.968Z,99239.63
2022-09-02T22:53:18.259Z,99241.50
2022-09-02T22:56:02.518Z,99247.72
2022-09-02T22:58:56.153Z,99247.47
2022-09-02T23:01:34.472Z,99245.19
2022-09-02T23:04:20.015Z,99240.25
2022-09-02T23:06:49.683Z,99239.34
2022-09-02T23:09:18.618Z,99240.38
2022-09-02T23:11:57.378Z,99245.03
2022-09-02T23:14:35.508Z,99237.72
2022-09-02T23:17:33.820Z,99234.63
2022-09-02T23:20:11.264Z,99237.50
2022-09-02T23:23:03.369Z,99236.25
2022-09-02T23:25:50.261Z,99236.28
2022-09-02T23:28:20.887Z,99236.78
2022-09-02T23:31:03.660Z,99242.63
2022-09-02T23:33:46.100Z,99239.53
2022-09-02T23:36:21.597Z,99243.91
2022-09-02T23:39:18.952Z,99236.00
2022-09-02T23:41:47.398Z,99234.38
2022-09-02T23:44:16.605Z,99238.75
2022-09-02T23:47:00.537Z,99231.75
2022-09-02T23:49:39.116Z,99240.84
2022-09-02T23:52:16.279Z,99239.53
2022-09-02T23:55:04.982Z,99249.44
2022-09-02T23:58:01.517Z,99246.44
